createdAt,value
2018-05-11T00:01:04.474Z,15.40
2018-05-11T00:11:05.830Z,15.30
2018-05-11T00:21:07.220Z,15.30
2018-05-11T00:31:08.534Z,15.30
2018-05-11T00:41:09.859Z,15.30
2018-05-11T00:51:11.970Z,15.30
2018-05-11T01:01:14.098Z,15.20
2018-05-11T01:11:15.422Z,15.20
2018-05-11T01:21:16.776Z,15.20
2018-05-11T01:51:33.046Z,15.30
2018-05-11T02:01:34.408Z,15.30
2018-05-11T02:11:35.762Z,15.40
2018-05-11T02:21:37.134Z,15.30
2018-05-11T02:31:38.456Z,15.30
2018-05-11T02:41:39.776Z,15.30
2018-05-11T02:51:41.113Z,15.20
2018-05-11T03:01:42.453Z,15.10
2018-05-11T03:11:43.817Z,15.20
2018-05-11T03:21:45.938Z,15.20
2018-05-11T03:31:47.281Z,15.10
2018-05-11T03:41:48.726Z,15.10
2018-05-11T03:51:50.143Z,15.00
2018-05-11T04:01:52.318Z,14.90
2018-05-11T04:11:53.672Z,14.90
2018-05-11T04:21:55.046Z,14.90
2018-05-11T04:31:57.164Z,15.00
2018-05-11T04:41:59.278Z,15.10
2018-05-11T04:52:01.398Z,15.20
2018-05-11T05:02:03.530Z,15.20
2018-05-11T05:12:04.894Z,15.20
2018-05-11T05:22:06.270Z,15.30
2018-05-11T05:32:07.667Z,15.60
2018-05-11T05:42:09.035Z,15.60
2018-05-11T05:52:10.469Z,15.90
2018-05-11T06:12:21.848Z,16.50
2018-05-11T06:22:23.859Z,17.00
2018-05-11T06:32:25.313Z,17.20
2018-05-11T06:42:27.397Z,17.00
2018-05-11T06:52:29.963Z,17.00
2018-05-11T07:02:31.332Z,17.20
2018-05-11T07:12:32.687Z,17.10
2018-05-11T07:22:34.056Z,17.30
2018-05-11T07:32:37.246Z,19.00
2018-05-11T07:42:38.661Z,19.00
2018-05-11T07:52:40.003Z,20.50
2018-05-11T08:02:41.391Z,22.10
2018-05-11T08:12:42.756Z,23.20
2018-05-11T08:22:44.083Z,24.20
2018-05-11T08:32:46.178Z,23.10
2018-05-11T08:42:47.539Z,23.10
2018-05-11T08:52:48.886Z,21.90
2018-05-11T09:02:51.000Z,22.60
2018-05-11T09:12:53.122Z,25.40
2018-05-11T09:22:55.249Z,27.10
2018-05-11T09:32:56.604Z,27.00
2018-05-11T09:42:57.948Z,26.40
2018-05-11T09:52:59.311Z,25.40
2018-05-11T10:03:00.657Z,24.20
2018-05-11T10:13:02.003Z,24.30
2018-05-11T10:23:03.327Z,24.50
2018-05-11T10:33:04.698Z,25.10
2018-05-11T10:43:06.043Z,26.20
2018-05-11T10:53:07.438Z,27.00
2018-05-11T11:03:08.794Z,27.10
2018-05-11T11:13:10.155Z,24.90
2018-05-11T11:23:11.511Z,23.80
2018-05-11T11:33:13.640Z,23.60
2018-05-11T11:43:15.076Z,23.60
2018-05-11T11:53:16.466Z,24.30
2018-05-11T12:03:17.786Z,24.00
2018-05-11T12:13:19.101Z,24.10
2018-05-11T12:23:21.189Z,23.50
2018-05-11T12:33:22.522Z,23.40
2018-05-11T12:43:23.905Z,24.60
2018-05-11T13:03:33.080Z,23.70
2018-05-11T13:13:35.219Z,23.50
2018-05-11T13:23:36.566Z,23.40
2018-05-11T13:33:37.911Z,23.50
2018-05-11T13:43:39.596Z,22.60
2018-05-11T13:53:41.045Z,22.50
2018-05-11T14:03:42.412Z,22.70
2018-05-11T14:13:43.798Z,22.50
2018-05-11T14:23:45.915Z,22.20
2018-05-11T14:33:48.030Z,23.00
2018-05-11T14:43:50.164Z,23.30
2018-05-11T14:53:51.546Z,23.30
2018-05-11T15:03:53.678Z,21.60
2018-05-11T15:13:55.051Z,21.60
2018-05-11T15:23:57.166Z,21.10
2018-05-11T15:33:59.309Z,20.90
2018-05-11T15:44:00.654Z,20.90
2018-05-11T15:54:02.011Z,20.70
2018-05-11T16:04:03.354Z,20.60
2018-05-11T16:14:04.684Z,20.80
2018-05-11T16:24:06.021Z,20.60
2018-05-11T16:34:07.366Z,20.70
2018-05-11T16:44:09.483Z,20.30
2018-05-11T16:54:11.586Z,19.90
2018-05-11T17:04:13.694Z,19.80
2018-05-11T17:14:15.040Z,19.80
2018-05-11T17:24:16.449Z,19.80
2018-05-11T17:34:18.856Z,19.80
2018-05-11T17:44:22.709Z,19.70
2018-05-11T17:54:24.050Z,19.50
2018-05-11T18:04:25.405Z,19.20
2018-05-11T18:14:26.748Z,18.70
2018-05-11T18:24:28.094Z,18.30
2018-05-11T18:34:29.427Z,17.90
2018-05-11T18:44:30.809Z,17.50
2018-05-11T18:54:32.422Z,17.10
2018-05-11T19:04:33.757Z,16.90
2018-05-11T19:14:35.120Z,16.60
2018-05-11T19:24:37.529Z,16.40
2018-05-11T19:34:38.905Z,16.10
2018-05-11T19:44:40.286Z,15.90
2018-05-11T19:54:42.427Z,15.50
2018-05-11T20:04:43.904Z,15.50
2018-05-11T20:14:45.169Z,15.30
2018-05-11T20:24:46.556Z,15.20
2018-05-11T20:34:47.951Z,15.00
2018-05-11T20:44:49.488Z,14.80
2018-05-11T20:54:51.664Z,14.60
2018-05-11T21:04:53.108Z,14.60
2018-05-11T21:14:54.541Z,14.50
2018-05-11T21:24:55.986Z,14.40
2018-05-11T21:34:57.402Z,14.20
2018-05-11T21:44:59.593Z,14.00
2018-05-11T21:55:00.945Z,14.00
2018-05-11T22:05:02.312Z,13.90
2018-05-11T22:15:03.622Z,14.00
2018-05-11T22:25:05.691Z,13.80
2018-05-11T22:35:07.020Z,13.70
2018-05-11T22:45:09.141Z,13.50
2018-05-11T22:55:11.253Z,13.40
2018-05-11T23:05:13.396Z,13.30
2018-05-11T23:15:14.745Z,13.30
2018-05-11T23:25:16.098Z,13.20
2018-05-11T23:35:17.538Z,13.10
2018-05-11T23:45:18.881Z,13.00
2018-05-11T23:55:20.226Z,12.90
